createdAt,value
2022-12-23T09:24:50.663Z,2.0
2022-12-23T09:26:49.970Z,2.2
2022-12-23T09:28:49.975Z,2.1
2022-12-23T09:30:49.864Z,2.1
2022-12-23T09:32:49.717Z,2.3
2022-12-23T09:34:50.170Z,2.3
2022-12-23T09:36:55.682Z,2.2
2022-12-23T09:38:50.579Z,2.1
2022-12-23T09:40:50.228Z,2.1
2022-12-23T09:42:50.028Z,2.4
2022-12-23T09:44:49.841Z,2.5
2022-12-23T09:46:50.034Z,2.4
2022-12-23T09:48:50.023Z,2.1
2022-12-23T09:50:50.662Z,2.1
2022-12-23T09:52:50.321Z,2.2
2022-12-23T09:54:49.855Z,2.2
2022-12-23T09:56:49.923Z,2.1
2022-12-23T09:58:49.713Z,2.1
2022-12-23T10:00:50.542Z,2.1
2022-12-23T10:02:50.824Z,2.3
2022-12-23T10:04:49.957Z,2.6
2022-12-23T10:06:49.951Z,2.9
2022-12-23T10:08:50.581Z,2.7
2022-12-23T10:10:50.315Z,2.7
2022-12-23T10:12:50.066Z,3.1
2022-12-23T10:14:49.767Z,2.9
2022-12-23T10:16:49.760Z,2.9
2022-12-23T10:18:50.381Z,3.0
2022-12-23T10:20:50.061Z,2.9
2022-12-23T10:22:50.600Z,3.1
2022-12-23T10:24:50.436Z,3.0
2022-12-23T10:26:50.259Z,3.0
2022-12-23T10:28:49.843Z,3.4
2022-12-23T10:32:50.564Z,3.1
2022-12-23T10:34:49.927Z,3.5
2022-12-23T10:36:50.095Z,3.6
2022-12-23T10:38:50.300Z,3.3
2022-12-23T10:40:49.931Z,3.3
2022-12-23T10:42:49.743Z,3.7
2022-12-23T10:44:50.472Z,3.5
2022-12-23T10:46:50.602Z,3.7
2022-12-23T10:48:50.572Z,3.7
2022-12-23T10:50:50.202Z,4.1
2022-12-23T10:52:50.041Z,4.1
2022-12-23T10:54:51.722Z,4.1
2022-12-23T10:56:50.645Z,4.1
2022-12-23T10:58:50.527Z,4.1
2022-12-23T11:00:50.460Z,4.2
2022-12-23T11:02:50.682Z,4.5
2022-12-23T11:04:50.339Z,4.8
2022-12-23T11:07:18.576Z,4.8
2022-12-23T11:08:49.973Z,4.5
2022-12-23T11:10:50.554Z,4.6
2022-12-23T11:12:50.168Z,4.9
2022-12-23T11:14:49.983Z,5.2
2022-12-23T11:16:50.180Z,5.2
2022-12-23T11:18:49.999Z,5.3
2022-12-23T11:20:49.842Z,5.3
2022-12-23T11:22:50.454Z,5.2
2022-12-23T11:24:50.239Z,5.7
2022-12-23T11:26:50.282Z,5.7
2022-12-23T11:28:49.876Z,5.5
2022-12-23T11:30:56.811Z,5.3
2022-12-23T11:32:49.911Z,5.4
2022-12-23T11:34:50.180Z,5.5
2022-12-23T11:36:56.709Z,5.5
2022-12-23T11:38:50.664Z,6.2
2022-12-23T11:40:50.194Z,5.9
2022-12-23T11:42:55.475Z,6.3
2022-12-23T11:44:50.242Z,6.3
2022-12-23T11:46:50.266Z,6.4
2022-12-23T11:48:55.031Z,6.6
2022-12-23T11:50:50.683Z,6.6
2022-12-23T11:52:50.283Z,6.5
2022-12-23T11:54:54.856Z,6.5
2022-12-23T11:56:49.874Z,6.7
2022-12-23T11:58:49.957Z,6.7
2022-12-23T12:00:56.210Z,6.7
2022-12-23T12:02:50.222Z,6.6
2022-12-23T12:04:49.773Z,6.4
2022-12-23T12:06:56.500Z,6.4
2022-12-23T12:08:50.410Z,7.0
2022-12-23T12:10:50.230Z,6.5
2022-12-23T12:12:55.149Z,6.9
2022-12-23T12:14:50.048Z,6.6
2022-12-23T12:16:50.170Z,6.6
2022-12-23T12:18:55.963Z,7.1
2022-12-23T12:20:49.922Z,7.3
2022-12-23T12:22:50.494Z,7.0
2022-12-23T12:24:50.131Z,7.0
2022-12-23T12:26:50.183Z,7.1
2022-12-23T12:28:49.783Z,7.1
2022-12-23T12:30:50.498Z,7.2
2022-12-23T12:32:50.381Z,7.2
2022-12-23T12:34:50.616Z,7.1
2022-12-23T12:36:50.761Z,7.2
2022-12-23T12:38:49.890Z,7.8
2022-12-23T12:40:50.697Z,7.9
2022-12-23T12:42:50.435Z,7.9
2022-12-23T12:44:50.069Z,7.2
2022-12-23T12:46:50.119Z,7.9
2022-12-23T12:48:49.704Z,7.3
2022-12-23T12:50:50.288Z,7.3
2022-12-23T12:52:49.989Z,7.6
2022-12-23T12:54:50.542Z,7.6
2022-12-23T12:56:50.572Z,8.2
2022-12-23T12:58:50.382Z,8.0
2022-12-23T13:00:49.996Z,8.0
2022-12-23T13:02:50.728Z,8.4
2022-12-23T13:04:50.244Z,8.1
2022-12-23T13:06:50.226Z,8.1
2022-12-23T13:08:49.837Z,8.5
2022-12-23T13:10:50.430Z,8.5
2022-12-23T13:12:50.479Z,8.0
2022-12-23T13:14:50.132Z,7.8
2022-12-23T13:16:50.280Z,7.4
2022-12-23T13:18:50.172Z,6.4
2022-12-23T13:20:50.520Z,4.7
2022-12-23T13:22:50.192Z,3.5
2022-12-23T13:24:49.775Z,3.5
2022-12-23T13:26:50.006Z,3.4
2022-12-23T13:28:50.569Z,3.6
2022-12-23T13:30:50.486Z,3.8
2022-12-23T13:32:50.419Z,3.8
2022-12-23T13:34:50.470Z,4.1
2022-12-23T13:36:50.806Z,4.9
2022-12-23T13:38:49.887Z,4.4
2022-12-23T13:40:50.463Z,4.4
2022-12-23T13:42:50.096Z,5.4
2022-12-23T13:44:49.914Z,5.0
2022-12-23T13:46:50.062Z,6.1
2022-12-23T13:48:50.154Z,6.1
2022-12-23T13:50:49.756Z,6.1
2022-12-23T13:52:50.585Z,6.4
2022-12-23T13:54:50.174Z,5.8
2022-12-23T13:56:50.219Z,5.8
2022-12-23T13:58:49.850Z,6.3
2022-12-23T14:00:50.424Z,6.3
2022-12-23T14:02:50.296Z,7.4
2022-12-23T14:04:49.834Z,7.7
2022-12-23T14:06:49.859Z,8.0
2022-12-23T14:08:50.508Z,8.0
2022-12-23T14:10:50.293Z,8.0
2022-12-23T14:12:49.909Z,9.1
2022-12-23T14:14:49.716Z,9.1
2022-12-23T14:16:49.765Z,10.3
2022-12-23T14:18:50.364Z,10.3
2022-12-23T14:20:50.006Z,10.8
2022-12-23T14:22:49.768Z,10.8
2022-12-23T14:24:50.594Z,11.7
2022-12-23T14:26:50.593Z,12.2
2022-12-23T14:28:50.205Z,11.7
2022-12-23T14:30:50.025Z,11.7
2022-12-23T14:32:49.985Z,12.0
2022-12-23T14:34:50.260Z,12.6
2022-12-23T14:36:50.226Z,11.7
2022-12-23T14:38:50.059Z,11.7
2022-12-23T14:40:49.782Z,12.1
2022-12-23T14:42:50.340Z,12.4
2022-12-23T14:44:50.034Z,12.2
2022-12-23T14:46:50.293Z,12.2
2022-12-23T14:49:04.420Z,12.7
2022-12-23T14:50:50.376Z,12.8
2022-12-23T14:52:50.119Z,12.4
2022-12-23T14:55:28.258Z,12.4
2022-12-23T14:56:50.343Z,12.4
2022-12-23T14:58:50.067Z,12.1
2022-12-23T15:00:50.680Z,13.3
2022-12-23T15:02:50.589Z,13.7
2022-12-23T15:04:49.877Z,13.7
2022-12-23T15:06:49.879Z,12.5
2022-12-23T15:08:49.753Z,12.5
2022-12-23T15:10:50.515Z,13.2
2022-12-23T15:12:50.376Z,12.7
2022-12-23T15:14:49.976Z,12.6
2022-12-23T15:16:50.196Z,12.6
2022-12-23T15:18:50.222Z,11.6
2022-12-23T15:20:49.828Z,12.4
2022-12-23T15:22:50.634Z,12.4
2022-12-23T15:24:50.248Z,12.4
2022-12-23T15:27:27.609Z,10.9
2022-12-23T15:28:50.043Z,11.5
2022-12-23T15:30:50.216Z,11.5
2022-12-23T15:32:50.104Z,12.3
2022-12-23T15:34:50.127Z,12.3
2022-12-23T15:36:50.248Z,12.8
2022-12-23T15:38:50.345Z,12.8
2022-12-23T15:40:49.951Z,12.9
2022-12-23T15:42:50.558Z,12.4
2022-12-23T15:44:50.187Z,12.4
2022-12-23T15:46:50.113Z,13.1
2022-12-23T15:48:50.188Z,12.2
2022-12-23T15:50:49.836Z,13.3
2022-12-23T15:52:50.638Z,13.1
2022-12-23T15:54:50.431Z,13.1
2022-12-23T15:56:50.487Z,13.3
2022-12-23T15:58:50.087Z,13.3
2022-12-23T16:00:49.692Z,12.8
2022-12-23T16:03:02.023Z,13.3
2022-12-23T16:04:50.551Z,13.3
2022-12-23T16:06:50.555Z,11.5
2022-12-23T16:08:50.359Z,11.6
2022-12-23T16:10:49.973Z,11.7
2022-12-23T16:12:49.780Z,11.5
2022-12-23T16:14:50.383Z,11.5
2022-12-23T16:16:50.712Z,11.5
2022-12-23T16:18:49.855Z,11.5
2022-12-23T16:20:50.638Z,10.9
2022-12-23T16:22:50.259Z,10.9
2022-12-23T16:24:50.079Z,10.9
2022-12-23T16:26:50.060Z,11.9
2022-12-23T16:28:49.746Z,11.6
2022-12-23T16:30:50.323Z,11.0
2022-12-23T16:32:49.977Z,11.0
2022-12-23T16:34:50.381Z,10.6
2022-12-23T16:36:50.778Z,10.6
2022-12-23T16:38:49.759Z,11.4
2022-12-23T16:40:50.379Z,11.4
2022-12-23T16:42:50.053Z,11.5
2022-12-23T16:44:49.874Z,11.5
2022-12-23T16:46:50.039Z,11.3
2022-12-23T16:48:49.865Z,11.6
2022-12-23T16:50:50.440Z,12.6
2022-12-23T16:52:50.090Z,11.7
2022-12-23T16:54:50.693Z,11.7
2022-12-23T16:56:49.720Z,12.2
2022-12-23T16:58:50.547Z,12.1
2022-12-23T17:00:50.254Z,12.1
2022-12-23T17:02:50.411Z,12.0
2022-12-23T17:04:49.964Z,12.0
2022-12-23T17:06:49.980Z,11.2
2022-12-23T17:08:50.592Z,10.7
2022-12-23T17:10:50.197Z,11.7
2022-12-23T17:12:49.817Z,11.7
2022-12-23T17:14:50.622Z,11.0
2022-12-23T17:16:50.833Z,11.3
2022-12-23T17:18:50.065Z,11.3
2022-12-23T17:20:50.089Z,10.3
2022-12-23T17:22:49.908Z,10.3
2022-12-23T17:24:49.693Z,10.6
2022-12-23T17:26:49.728Z,10.2
2022-12-23T17:28:50.320Z,10.4
2022-12-23T17:30:50.152Z,9.7
2022-12-23T17:32:49.742Z,9.7
2022-12-23T17:34:49.764Z,9.5
2022-12-23T17:36:51.441Z,9.1
2022-12-23T17:38:50.046Z,8.2
2022-12-23T17:40:49.850Z,8.2
2022-12-23T17:42:50.633Z,7.8
2022-12-23T17:44:50.429Z,6.8
2022-12-23T17:46:50.278Z,6.3
2022-12-23T17:48:49.903Z,6.3
2022-12-23T17:50:49.717Z,6.3
2022-12-23T17:52:50.319Z,5.7
2022-12-23T17:54:50.140Z,5.4
2022-12-23T17:56:50.169Z,5.4
2022-12-23T17:58:49.753Z,5.4
2022-12-23T18:00:50.673Z,5.3
2022-12-23T18:02:50.616Z,5.5
2022-12-23T18:04:50.017Z,4.5
2022-12-23T18:06:50.028Z,4.2
2022-12-23T18:08:49.817Z,4.2
2022-12-23T18:10:50.691Z,3.5
2022-12-23T18:12:50.464Z,3.0
2022-12-23T18:14:50.066Z,2.8
2022-12-23T18:16:50.356Z,2.7
2022-12-23T18:18:50.493Z,2.7
2022-12-23T18:20:50.128Z,2.6
2022-12-23T18:22:50.150Z,2.6
2022-12-23T18:24:59.335Z,2.6
2022-12-23T18:26:49.729Z,2.6
2022-12-23T18:28:50.565Z,2.6
2022-12-23T18:30:50.346Z,2.2
2022-12-23T18:32:50.423Z,2.3
2022-12-23T18:34:50.485Z,2.1
2022-12-23T18:36:50.672Z,2.2
2022-12-23T18:38:49.861Z,2.2
2022-12-23T18:40:50.440Z,2.2
2022-12-23T18:42:50.089Z,1.9
2022-12-23T18:44:49.681Z,2.1
2022-12-23T18:46:49.904Z,2.3
2022-12-23T18:48:50.312Z,2.3
2022-12-23T18:50:49.945Z,2.0
2022-12-23T18:52:50.589Z,1.9
2022-12-23T18:54:50.379Z,2.1
2022-12-23T18:56:50.369Z,1.7
2022-12-23T18:58:50.013Z,1.7
2022-12-23T19:00:50.604Z,1.9
2022-12-23T19:02:50.637Z,1.9
2022-12-23T19:04:50.233Z,2.1
2022-12-23T19:06:50.049Z,2.1
2022-12-23T19:08:50.655Z,2.2
2022-12-23T19:10:50.280Z,2.3
2022-12-23T19:12:50.127Z,2.1
2022-12-23T19:14:49.664Z,2.1
2022-12-23T19:16:52.793Z,2.1
2022-12-23T19:18:49.944Z,2.1
2022-12-23T19:20:50.604Z,2.1
2022-12-23T19:22:50.328Z,2.3
2022-12-23T19:25:05.574Z,1.8
2022-12-23T19:26:50.183Z,1.8
2022-12-23T19:28:50.089Z,1.7
2022-12-23T19:30:50.134Z,1.8
2022-12-23T19:32:50.220Z,1.8
2022-12-23T19:34:50.452Z,1.5
2022-12-23T19:36:50.715Z,1.5
2022-12-23T19:38:50.707Z,1.6
2022-12-23T19:40:50.504Z,1.5
2022-12-23T19:42:50.116Z,1.9
2022-12-23T19:44:49.718Z,1.4
2022-12-23T19:46:49.872Z,1.4
2022-12-23T19:48:49.975Z,1.4
2022-12-23T19:50:49.954Z,1.5
2022-12-23T19:52:50.677Z,1.3
2022-12-23T19:54:50.388Z,1.3
2022-12-23T19:56:50.440Z,1.3
2022-12-23T19:58:50.047Z,1.5
2022-12-23T20:00:49.903Z,1.4
2022-12-23T20:02:58.592Z,1.7
2022-12-23T20:04:50.076Z,1.7
2022-12-23T20:06:50.096Z,1.7
2022-12-23T20:09:00.535Z,1.7
2022-12-23T20:10:49.705Z,1.7
2022-12-23T20:12:50.296Z,1.7
2022-12-23T20:14:49.961Z,1.7
2022-12-23T20:16:49.960Z,1.9
2022-12-23T20:18:49.810Z,1.9
2022-12-23T20:20:50.567Z,1.8
2022-12-23T20:22:50.215Z,1.8
2022-12-23T20:24:49.873Z,2.1
2022-12-23T20:26:50.057Z,2.1
2022-12-23T20:28:50.671Z,1.9
2022-12-23T20:30:50.503Z,2.1
2022-12-23T20:32:50.227Z,2.1
2022-12-23T20:34:50.553Z,2.0
2022-12-23T20:36:49.960Z,2.1
2022-12-23T20:38:49.938Z,2.2
2022-12-23T20:40:49.824Z,2.2
2022-12-23T20:42:50.557Z,2.1
2022-12-23T20:44:50.346Z,2.3
2022-12-23T20:46:50.393Z,2.3
2022-12-23T20:48:50.377Z,2.5
2022-12-23T20:50:50.063Z,2.3
2022-12-23T20:52:50.594Z,2.3
2022-12-23T20:54:50.429Z,2.2
2022-12-23T20:56:50.470Z,8.3
2022-12-23T20:58:50.311Z,2.3
2022-12-23T21:00:49.897Z,1.9
2022-12-23T21:02:50.610Z,1.9
2022-12-23T21:04:50.193Z,2.4
2022-12-23T21:06:50.150Z,2.2
2022-12-23T21:08:49.946Z,2.2
2022-12-23T21:10:50.553Z,2.1
2022-12-23T21:12:50.378Z,2.0
2022-12-23T21:14:50.179Z,1.7
2022-12-23T21:16:50.454Z,1.8
2022-12-23T21:18:50.411Z,1.8
2022-12-23T21:20:50.036Z,1.8
2022-12-23T21:22:49.812Z,1.6
2022-12-23T21:24:50.434Z,1.6
2022-12-23T21:26:57.009Z,1.5
2022-12-23T21:28:50.097Z,1.8
2022-12-23T21:30:50.713Z,1.5
2022-12-23T21:32:50.306Z,1.5
2022-12-23T21:34:50.531Z,1.5
2022-12-23T21:36:50.726Z,1.5
2022-12-23T21:38:49.761Z,1.6
2022-12-23T21:40:50.553Z,1.6
2022-12-23T21:42:50.206Z,1.6
2022-12-23T21:44:49.982Z,1.3
2022-12-23T21:46:50.003Z,1.4
2022-12-23T21:48:50.229Z,1.4
2022-12-23T21:50:49.872Z,1.4
2022-12-23T21:52:50.636Z,1.5
2022-12-23T21:54:50.268Z,1.4
2022-12-23T21:56:50.077Z,1.5
2022-12-23T21:58:49.901Z,1.5
2022-12-23T22:00:49.818Z,1.5
2022-12-23T22:02:49.694Z,1.5
2022-12-23T22:04:49.965Z,1.7
2022-12-23T22:06:49.962Z,1.4
2022-12-23T22:08:50.584Z,1.4
2022-12-23T22:10:50.383Z,1.7
2022-12-23T22:12:50.020Z,1.3
2022-12-23T22:14:50.617Z,1.4
2022-12-23T22:16:50.772Z,1.4
2022-12-23T22:18:50.676Z,1.4
2022-12-23T22:20:50.454Z,1.4
2022-12-23T22:22:50.078Z,1.4
2022-12-23T22:24:50.669Z,1.3
2022-12-23T22:26:49.704Z,1.4
2022-12-23T22:28:50.286Z,1.4
2022-12-23T22:30:50.161Z,1.4
2022-12-23T22:32:49.949Z,1.4
2022-12-23T22:34:49.967Z,1.4
2022-12-23T22:36:50.582Z,1.4
2022-12-23T22:38:49.973Z,1.4
2022-12-23T22:40:50.604Z,1.4
2022-12-23T22:42:50.197Z,1.5
2022-12-23T22:44:50.144Z,1.5
2022-12-23T22:46:50.815Z,2.0
2022-12-23T22:48:49.848Z,2.0
2022-12-23T22:50:50.451Z,1.8
2022-12-23T22:52:50.096Z,1.8
2022-12-23T22:54:49.715Z,1.8
2022-12-23T22:56:49.683Z,1.8
2022-12-23T22:58:50.524Z,2.1
2022-12-23T23:00:50.343Z,2.1
2022-12-23T23:02:49.996Z,2.0
2022-12-23T23:04:50.190Z,1.9
2022-12-23T23:06:50.198Z,2.0
2022-12-23T23:08:49.816Z,2.0
2022-12-23T23:10:50.617Z,2.0
2022-12-23T23:12:50.254Z,1.9
2022-12-23T23:14:49.845Z,2.0
2022-12-23T23:16:50.253Z,2.2
2022-12-23T23:18:50.099Z,2.2
2022-12-23T23:20:49.908Z,2.4
2022-12-23T23:22:49.713Z,1.9
2022-12-23T23:24:50.517Z,1.9
2022-12-23T23:26:50.571Z,2.1
2022-12-23T23:28:50.327Z,2.1
2022-12-23T23:31:31.770Z,1.9
2022-12-23T23:32:50.079Z,2.2
2022-12-23T23:34:50.033Z,2.1
2022-12-23T23:36:50.306Z,2.1
2022-12-23T23:38:50.402Z,1.9
2022-12-23T23:40:50.059Z,1.8
2022-12-23T23:42:50.043Z,1.7
2022-12-23T23:44:49.846Z,1.7
2022-12-23T23:46:49.876Z,1.7
2022-12-23T23:48:50.509Z,1.8
2022-12-23T23:50:50.306Z,1.8
2022-12-23T23:52:50.235Z,1.8
2022-12-23T23:54:49.921Z,1.8
2022-12-23T23:56:49.998Z,1.8
2022-12-23T23:58:49.754Z,2.0
